createdAt,value
2018-04-17T00:02:23.131Z,20.83
2018-04-17T00:04:50.852Z,25.93
2018-04-17T00:07:19.550Z,24.40
2018-04-17T00:09:48.416Z,27.83
2018-04-17T00:12:17.649Z,33.03
2018-04-17T00:14:45.361Z,29.53
2018-04-17T00:17:14.413Z,21.40
2018-04-17T00:19:42.493Z,22.27
2018-04-17T00:22:11.632Z,24.23
2018-04-17T00:24:39.799Z,21.43
2018-04-17T00:27:07.907Z,26.97
2018-04-17T00:29:36.778Z,28.43
2018-04-17T00:32:14.749Z,23.87
2018-04-17T00:34:42.458Z,27.97
2018-04-17T00:37:26.851Z,26.93
2018-04-17T00:39:54.577Z,29.63
2018-04-17T00:42:26.477Z,27.40
2018-04-17T00:44:54.583Z,26.97
2018-04-17T00:47:23.045Z,29.87
2018-04-17T00:49:51.221Z,24.47
2018-04-17T00:52:20.945Z,25.63
2018-04-17T00:54:49.114Z,26.90
2018-04-17T00:57:20.571Z,29.63
2018-04-17T00:59:49.053Z,25.10
2018-04-17T01:02:23.857Z,27.80
2018-04-17T01:04:52.000Z,32.60
2018-04-17T01:07:31.560Z,30.03
2018-04-17T01:10:00.016Z,29.47
2018-04-17T01:12:29.624Z,25.20
2018-04-17T01:14:58.135Z,30.07
2018-04-17T01:17:26.253Z,27.47
2018-04-17T01:19:53.956Z,30.23
2018-04-17T01:22:24.994Z,17.83
2018-04-17T01:24:52.713Z,17.57
2018-04-17T01:27:33.082Z,16.30
2018-04-17T01:30:01.174Z,17.03
2018-04-17T01:32:41.392Z,21.43
2018-04-17T01:35:09.889Z,17.20
2018-04-17T01:37:39.515Z,18.40
2018-04-17T01:40:07.213Z,14.77
2018-04-17T01:42:35.916Z,16.07
2018-04-17T01:45:04.556Z,17.07
2018-04-17T01:47:38.660Z,21.87
2018-04-17T01:50:06.393Z,24.17
2018-04-17T01:52:36.888Z,24.80
2018-04-17T01:55:04.724Z,24.30
2018-04-17T01:57:35.238Z,22.33
2018-04-17T02:00:02.985Z,23.53
2018-04-17T02:02:36.939Z,25.37
2018-04-17T02:05:05.984Z,21.90
2018-04-17T02:07:39.581Z,19.13
2018-04-17T02:10:08.060Z,20.37
2018-04-17T02:12:43.896Z,18.97
2018-04-17T02:15:11.569Z,18.37
2018-04-17T02:17:57.310Z,17.90
2018-04-17T02:20:25.087Z,16.13
2018-04-17T02:22:54.142Z,12.37
2018-04-17T02:25:22.282Z,9.00
2018-04-17T02:28:06.439Z,8.13
2018-04-17T02:30:34.916Z,7.27
2018-04-17T02:33:06.693Z,8.00
2018-04-17T02:35:34.800Z,7.77
2018-04-17T02:38:10.057Z,7.60
2018-04-17T02:40:38.537Z,9.40
2018-04-17T02:43:20.861Z,9.77
2018-04-17T02:45:48.944Z,9.47
2018-04-17T02:48:17.384Z,11.10
2018-04-17T02:50:45.176Z,13.00
2018-04-17T02:53:14.923Z,16.13
2018-04-17T02:55:42.632Z,12.13
2018-04-17T02:58:10.770Z,12.77
2018-04-17T03:00:38.472Z,11.77
2018-04-17T03:03:15.030Z,12.17
2018-04-17T03:05:42.757Z,13.87
2018-04-17T03:08:11.182Z,72.40
2018-04-17T03:10:40.374Z,53.40
2018-04-17T03:13:13.991Z,134.63
2018-04-17T03:15:41.680Z,133.03
2018-04-17T03:18:17.040Z,103.27
2018-04-17T03:20:45.900Z,81.57
2018-04-17T03:23:15.384Z,88.70
2018-04-17T03:25:45.017Z,101.37
2018-04-17T03:28:30.968Z,28.60
2018-04-17T03:30:58.661Z,26.93
2018-04-17T03:33:28.869Z,31.00
2018-04-17T03:35:56.978Z,43.07
2018-04-17T03:38:26.879Z,36.07
2018-04-17T03:40:54.955Z,29.13
2018-04-17T03:43:24.505Z,51.83
2018-04-17T03:45:52.659Z,80.47
2018-04-17T03:48:28.435Z,64.67
2018-04-17T03:50:56.662Z,22.30
2018-04-17T03:53:24.813Z,30.30
2018-04-17T03:55:52.471Z,53.17
2018-04-17T03:58:21.544Z,33.37
2018-04-17T04:00:49.668Z,65.67
2018-04-17T04:03:19.876Z,138.83
2018-04-17T04:05:48.370Z,91.37
2018-04-17T04:08:18.828Z,122.43
2018-04-17T04:10:46.558Z,107.77
2018-04-17T04:13:14.296Z,99.27
2018-04-17T04:15:42.831Z,16.70
2018-04-17T04:21:32.265Z,190.63
2018-04-17T04:24:24.112Z,151.37
2018-04-17T04:26:52.630Z,87.37
2018-04-17T04:29:30.296Z,51.27
2018-04-17T04:31:58.769Z,159.77
2018-04-17T04:34:29.367Z,226.77
2018-04-17T04:36:57.882Z,74.67
2018-04-17T04:39:28.365Z,120.97
2018-04-17T04:41:56.069Z,95.50
2018-04-17T04:44:30.332Z,70.13
2018-04-17T04:46:57.999Z,74.87
2018-04-17T04:49:28.204Z,109.77
2018-04-17T04:51:56.666Z,120.53
2018-04-17T04:54:24.769Z,84.50
2018-04-17T04:56:52.445Z,78.87
2018-04-17T04:59:21.569Z,102.10
2018-04-17T05:01:50.066Z,65.80
2018-04-17T05:04:18.191Z,57.27
2018-04-17T05:06:46.012Z,92.03
2018-04-17T05:09:15.679Z,80.57
2018-04-17T05:11:43.788Z,124.47
2018-04-17T05:14:12.942Z,136.47
2018-04-17T05:16:41.080Z,182.17
2018-04-17T05:19:10.677Z,19.40
2018-04-17T05:21:39.128Z,176.17
2018-04-17T05:24:07.668Z,88.63
2018-04-17T05:26:35.434Z,90.57
2018-04-17T05:29:14.609Z,88.80
2018-04-17T05:31:43.110Z,37.77
2018-04-17T05:34:15.715Z,131.03
2018-04-17T05:36:44.174Z,65.83
2018-04-17T05:42:06.457Z,60.53
2018-04-17T05:44:34.191Z,55.80
2018-04-17T05:47:02.321Z,65.37
2018-04-17T05:49:31.602Z,44.37
2018-04-17T05:52:04.322Z,34.63
2018-04-17T05:54:33.592Z,59.10
2018-04-17T05:57:07.343Z,33.27
2018-04-17T05:59:35.108Z,26.97
2018-04-17T06:02:06.200Z,30.30
2018-04-17T06:04:33.849Z,26.07
2018-04-17T06:07:09.417Z,29.07
2018-04-17T06:09:37.902Z,33.13
2018-04-17T06:12:05.909Z,27.87
2018-04-17T06:14:34.064Z,32.27
2018-04-17T06:17:02.608Z,26.33
2018-04-17T06:19:30.308Z,25.63
2018-04-17T06:21:59.420Z,26.87
2018-04-17T06:24:27.505Z,27.33
2018-04-17T06:26:55.295Z,27.67
2018-04-17T06:29:23.389Z,23.77
2018-04-17T06:31:54.545Z,25.03
2018-04-17T06:34:22.957Z,29.03
2018-04-17T06:36:50.706Z,23.30
2018-04-17T06:39:19.129Z,28.53
2018-04-17T06:41:47.914Z,31.60
2018-04-17T06:44:15.637Z,34.87
2018-04-17T06:46:44.372Z,28.47
2018-04-17T06:49:12.469Z,29.53
2018-04-17T06:51:40.249Z,31.17
2018-04-17T06:54:08.737Z,25.03
2018-04-17T06:56:36.465Z,30.33
2018-04-17T06:59:04.975Z,29.90
2018-04-17T07:01:34.421Z,30.53
2018-04-17T07:04:02.912Z,31.17
2018-04-17T07:06:32.039Z,32.10
2018-04-17T07:08:59.768Z,31.10
2018-04-17T07:11:28.892Z,33.73
2018-04-17T07:13:56.559Z,35.37
2018-04-17T07:16:26.309Z,42.33
2018-04-17T07:18:54.011Z,38.40
2018-04-17T07:21:28.213Z,42.50
2018-04-17T07:23:55.977Z,35.50
2018-04-17T07:26:28.177Z,36.40
2018-04-17T07:28:56.714Z,37.40
2018-04-17T07:31:32.388Z,36.83
2018-04-17T07:34:00.117Z,37.10
2018-04-17T07:36:31.383Z,30.73
2018-04-17T07:38:59.057Z,34.47
2018-04-17T07:41:27.775Z,35.30
2018-04-17T07:43:56.006Z,33.87
2018-04-17T07:46:26.530Z,30.33
2018-04-17T07:48:54.278Z,36.57
2018-04-17T07:51:22.022Z,29.63
2018-04-17T07:53:51.670Z,30.30
2018-04-17T07:56:19.409Z,35.10
2018-04-17T07:58:49.233Z,31.93
2018-04-17T08:01:16.937Z,35.20
2018-04-17T08:03:46.078Z,33.20
2018-04-17T08:06:13.786Z,27.00
2018-04-17T08:08:42.704Z,32.17
2018-04-17T08:11:11.180Z,29.70
2018-04-17T08:13:39.857Z,34.70
2018-04-17T08:16:07.609Z,29.00
2018-04-17T08:18:42.680Z,28.00
2018-04-17T08:21:11.531Z,32.10
2018-04-17T08:23:44.175Z,31.63
2018-04-17T08:26:11.870Z,34.33
2018-04-17T08:28:42.643Z,24.13
2018-04-17T08:31:11.232Z,26.93
2018-04-17T08:33:41.692Z,27.43
2018-04-17T08:36:09.345Z,26.20
2018-04-17T08:38:38.297Z,29.07
2018-04-17T08:41:07.584Z,28.90
2018-04-17T08:43:38.741Z,31.30
2018-04-17T08:46:07.276Z,24.47
2018-04-17T08:48:37.044Z,27.40
2018-04-17T08:51:05.565Z,28.17
2018-04-17T08:53:38.271Z,29.13
2018-04-17T08:56:06.000Z,30.23
2018-04-17T08:58:38.755Z,31.93
2018-04-17T09:01:06.481Z,29.10
2018-04-17T09:03:38.848Z,32.10
2018-04-17T09:06:06.550Z,27.33
2018-04-17T09:08:40.932Z,29.37
2018-04-17T09:11:08.722Z,34.43
2018-04-17T09:13:37.656Z,30.50
2018-04-17T09:16:05.405Z,29.07
2018-04-17T09:18:41.066Z,29.97
2018-04-17T09:21:08.727Z,28.07
2018-04-17T09:23:42.308Z,31.43
2018-04-17T09:26:10.025Z,27.07
2018-04-17T09:28:57.048Z,30.43
2018-04-17T09:31:24.755Z,26.97
2018-04-17T09:34:00.361Z,21.60
2018-04-17T09:36:28.104Z,28.13
2018-04-17T09:39:07.041Z,29.20
2018-04-17T09:41:35.161Z,22.57
2018-04-17T09:46:57.212Z,17.13
2018-04-17T09:49:25.708Z,26.60
2018-04-17T09:51:54.461Z,20.40
2018-04-17T09:54:22.922Z,16.60
2018-04-17T09:57:15.435Z,17.40
2018-04-17T09:59:43.256Z,15.43
2018-04-17T10:02:25.164Z,15.20
2018-04-17T10:04:54.660Z,19.20
2018-04-17T10:07:36.840Z,16.83
2018-04-17T10:10:05.512Z,17.37
2018-04-17T10:12:41.498Z,18.20
2018-04-17T10:15:09.920Z,24.23
2018-04-17T10:17:40.734Z,15.23
2018-04-17T10:20:08.405Z,13.40
2018-04-17T10:25:29.488Z,14.80
2018-04-17T10:27:57.706Z,17.40
2018-04-17T10:30:30.525Z,15.97
2018-04-17T10:32:58.217Z,13.17
2018-04-17T10:35:28.595Z,16.17
2018-04-17T10:37:56.268Z,14.43
2018-04-17T10:40:45.963Z,15.13
2018-04-17T10:43:13.606Z,15.50
2018-04-17T10:45:47.334Z,13.57
2018-04-17T10:48:15.564Z,14.63
2018-04-17T10:50:56.749Z,15.53
2018-04-17T10:53:24.645Z,14.73
2018-04-17T10:55:57.208Z,14.30
2018-04-17T10:58:29.469Z,14.87
2018-04-17T11:01:00.260Z,20.57
2018-04-17T11:03:28.078Z,16.17
2018-04-17T11:06:07.083Z,13.83
2018-04-17T11:08:35.212Z,17.20
2018-04-17T11:11:09.177Z,15.30
2018-04-17T11:13:37.254Z,14.20
2018-04-17T11:16:06.088Z,17.27
2018-04-17T11:18:34.548Z,14.23
2018-04-17T11:21:13.032Z,15.90
2018-04-17T11:23:40.746Z,15.03
2018-04-17T11:26:19.414Z,19.07
2018-04-17T11:28:47.116Z,17.20
2018-04-17T11:31:25.119Z,15.33
2018-04-17T11:33:53.540Z,18.47
2018-04-17T11:36:45.334Z,15.40
2018-04-17T11:39:13.948Z,17.03
2018-04-17T11:44:38.766Z,18.70
2018-04-17T11:47:06.475Z,21.60
2018-04-17T11:49:40.869Z,15.53
2018-04-17T11:52:08.579Z,13.93
2018-04-17T11:54:37.434Z,15.00
2018-04-17T11:57:05.150Z,14.40
2018-04-17T11:59:36.455Z,15.63
2018-04-17T12:02:05.169Z,14.77
2018-04-17T12:04:34.178Z,19.10
2018-04-17T12:07:02.109Z,15.83
2018-04-17T12:09:42.282Z,16.10
2018-04-17T12:12:10.030Z,16.30
2018-04-17T12:14:49.327Z,14.10
2018-04-17T12:17:17.052Z,14.00
2018-04-17T12:19:50.268Z,13.77
2018-04-17T12:22:18.028Z,15.37
2018-04-17T12:24:45.853Z,11.97
2018-04-17T12:27:13.890Z,11.77
2018-04-17T12:29:42.625Z,12.43
2018-04-17T12:32:10.338Z,11.27
2018-04-17T12:34:40.416Z,8.80
2018-04-17T12:37:08.071Z,11.20
2018-04-17T12:39:40.161Z,16.00
2018-04-17T12:42:08.261Z,9.00
2018-04-17T12:44:47.819Z,10.53
2018-04-17T12:47:16.009Z,11.77
2018-04-17T12:49:50.456Z,10.03
2018-04-17T12:52:18.320Z,9.50
2018-04-17T12:54:58.085Z,10.07
2018-04-17T12:57:26.172Z,10.37
2018-04-17T12:59:55.899Z,10.30
2018-04-17T13:02:23.681Z,11.43
2018-04-17T13:05:02.577Z,14.87
2018-04-17T13:07:30.369Z,11.57
2018-04-17T13:10:12.559Z,10.93
2018-04-17T13:12:40.287Z,12.33
2018-04-17T13:15:16.024Z,11.33
2018-04-17T13:17:44.553Z,12.13
2018-04-17T13:20:19.085Z,9.40
2018-04-17T13:22:46.885Z,11.47
2018-04-17T13:25:20.987Z,12.13
2018-04-17T13:27:49.036Z,9.87
2018-04-17T13:30:36.041Z,12.57
2018-04-17T13:33:04.042Z,8.23
2018-04-17T13:35:42.914Z,14.80
2018-04-17T13:38:10.642Z,10.77
2018-04-17T13:40:45.251Z,14.83
2018-04-17T13:43:13.723Z,13.60
2018-04-17T13:45:45.830Z,11.70
2018-04-17T13:48:13.550Z,7.67
2018-04-17T13:50:47.636Z,15.67
2018-04-17T13:53:15.380Z,13.00
2018-04-17T13:55:55.637Z,14.07
2018-04-17T13:58:23.363Z,12.90
2018-04-17T14:00:58.384Z,12.13
2018-04-17T14:03:27.537Z,13.07
2018-04-17T14:05:57.272Z,13.80
2018-04-17T14:08:25.050Z,16.50
2018-04-17T14:10:54.092Z,13.53
2018-04-17T14:13:22.573Z,11.70
2018-04-17T14:16:09.317Z,14.63
2018-04-17T14:18:37.490Z,21.83
2018-04-17T14:21:13.708Z,14.37
2018-04-17T14:23:41.393Z,15.67
2018-04-17T14:29:20.065Z,13.07
2018-04-17T14:31:48.572Z,19.10
2018-04-17T14:34:17.220Z,13.80
2018-04-17T14:36:44.892Z,13.97
2018-04-17T14:39:12.628Z,15.40
2018-04-17T14:41:41.379Z,14.63
2018-04-17T14:44:09.082Z,15.33
2018-04-17T14:52:27.291Z,13.87
2018-04-17T14:54:55.775Z,11.17
2018-04-17T14:57:24.243Z,12.70
2018-04-17T14:59:51.982Z,16.53
2018-04-17T15:02:34.640Z,13.77
2018-04-17T15:05:02.753Z,16.87
2018-04-17T15:07:48.889Z,12.77
2018-04-17T15:10:17.386Z,16.17
2018-04-17T15:12:46.390Z,14.03
2018-04-17T15:15:14.512Z,13.37
2018-04-17T15:23:30.649Z,12.17
2018-04-17T15:25:59.861Z,16.53
2018-04-17T15:28:46.209Z,13.87
2018-04-17T15:31:13.937Z,12.80
2018-04-17T15:33:54.243Z,13.50
2018-04-17T15:36:22.348Z,13.53
2018-04-17T15:39:01.863Z,16.30
2018-04-17T15:41:29.603Z,13.73
2018-04-17T15:44:18.221Z,11.37
2018-04-17T15:46:47.601Z,19.27
2018-04-17T15:49:28.555Z,16.97
2018-04-17T15:51:56.544Z,17.20
2018-04-17T15:54:33.684Z,12.23
2018-04-17T15:57:02.522Z,14.03
2018-04-17T15:59:33.530Z,13.87
2018-04-17T16:02:01.641Z,15.07
2018-04-17T16:04:54.251Z,16.60
2018-04-17T16:07:21.928Z,16.30
2018-04-17T16:10:02.800Z,14.80
2018-04-17T16:12:30.929Z,25.03
2018-04-17T16:15:07.879Z,15.97
2018-04-17T16:17:36.721Z,18.33
2018-04-17T16:20:06.835Z,18.13
2018-04-17T16:22:34.699Z,36.17
2018-04-17T16:25:03.869Z,14.90
2018-04-17T16:27:31.594Z,52.83
2018-04-17T16:30:22.734Z,22.63
2018-04-17T16:32:50.450Z,23.97
2018-04-17T16:35:19.605Z,22.83
2018-04-17T16:37:47.297Z,24.10
2018-04-17T16:40:20.469Z,19.67
2018-04-17T16:42:48.201Z,21.13
2018-04-17T16:45:23.638Z,19.60
2018-04-17T16:47:52.130Z,17.07
2018-04-17T16:50:20.627Z,59.53
2018-04-17T16:52:48.388Z,19.37
2018-04-17T16:55:17.948Z,61.53
2018-04-17T16:57:45.628Z,42.10
2018-04-17T17:00:18.333Z,23.30
2018-04-17T17:02:46.440Z,35.73
2018-04-17T17:05:14.110Z,18.50
2018-04-17T17:07:42.021Z,16.93
2018-04-17T17:10:10.596Z,26.80
2018-04-17T17:12:39.024Z,21.83
2018-04-17T17:15:11.267Z,22.47
2018-04-17T17:17:39.102Z,22.07
2018-04-17T17:20:26.207Z,30.03
2018-04-17T17:22:54.043Z,26.50
2018-04-17T17:25:33.714Z,22.83
2018-04-17T17:28:01.425Z,24.83
2018-04-17T17:30:43.804Z,20.50
2018-04-17T17:33:11.986Z,29.00
2018-04-17T17:35:43.657Z,22.33
2018-04-17T17:38:11.437Z,23.73
2018-04-17T17:40:44.414Z,23.53
2018-04-17T17:43:12.160Z,23.57
2018-04-17T17:46:00.190Z,18.33
2018-04-17T17:48:28.660Z,24.70
2018-04-17T17:50:57.459Z,20.23
2018-04-17T17:53:25.908Z,25.97
2018-04-17T17:55:58.645Z,35.13
2018-04-17T17:58:27.119Z,29.53
2018-04-17T18:03:49.103Z,20.23
2018-04-17T18:06:16.861Z,17.57
2018-04-17T18:08:45.637Z,21.10
2018-04-17T18:11:13.439Z,20.97
2018-04-17T18:13:43.541Z,18.57
2018-04-17T18:16:11.244Z,17.70
2018-04-17T18:18:39.940Z,17.47
2018-04-17T18:21:08.358Z,20.53
2018-04-17T18:23:39.813Z,19.27
2018-04-17T18:26:07.486Z,19.70
2018-04-17T18:28:38.326Z,16.03
2018-04-17T18:31:07.567Z,18.83
2018-04-17T18:33:38.012Z,15.23
2018-04-17T18:36:05.778Z,16.57
2018-04-17T18:38:35.500Z,16.90
2018-04-17T18:41:03.164Z,18.80
2018-04-17T18:43:34.564Z,19.43
2018-04-17T18:46:02.316Z,20.20
2018-04-17T18:48:37.879Z,20.27
2018-04-17T18:51:07.900Z,19.53
2018-04-17T18:53:41.907Z,19.73
2018-04-17T18:56:13.770Z,19.50
2018-04-17T18:58:42.267Z,23.47
2018-04-17T19:04:05.533Z,21.13
2018-04-17T19:06:33.977Z,18.50
2018-04-17T19:09:01.688Z,21.73
2018-04-17T19:11:29.939Z,22.97
2018-04-17T19:13:58.339Z,20.53
2018-04-17T19:16:26.798Z,20.23
2018-04-17T19:21:55.894Z,19.53
2018-04-17T19:24:23.577Z,18.70
2018-04-17T19:27:09.527Z,18.23
2018-04-17T19:29:37.348Z,17.67
2018-04-17T19:32:07.843Z,14.73
2018-04-17T19:34:35.562Z,18.77
2018-04-17T19:37:05.203Z,18.20
2018-04-17T19:39:33.684Z,18.73
2018-04-17T19:42:07.049Z,19.87
2018-04-17T19:44:35.509Z,22.03
2018-04-17T19:47:03.295Z,18.83
2018-04-17T19:49:31.020Z,16.83
2018-04-17T19:52:06.728Z,19.33
2018-04-17T19:54:34.791Z,19.73
2018-04-17T19:57:08.621Z,18.10
2018-04-17T19:59:36.360Z,18.37
2018-04-17T20:02:05.076Z,20.43
2018-04-17T20:04:32.808Z,18.93
2018-04-17T20:07:03.694Z,17.07
2018-04-17T20:09:32.149Z,17.73
2018-04-17T20:12:03.436Z,18.03
2018-04-17T20:14:31.941Z,15.47
2018-04-17T20:17:15.302Z,21.73
2018-04-17T20:19:43.366Z,20.80
2018-04-17T20:22:23.927Z,16.73
2018-04-17T20:24:51.938Z,17.50
2018-04-17T20:27:20.541Z,24.33
2018-04-17T20:29:48.273Z,17.97
2018-04-17T20:32:26.551Z,18.03
2018-04-17T20:34:54.634Z,20.17
2018-04-17T20:37:36.142Z,20.10
2018-04-17T20:40:03.901Z,14.07
2018-04-17T20:42:32.670Z,21.13
2018-04-17T20:45:00.421Z,18.00
2018-04-17T20:47:28.116Z,17.97
2018-04-17T20:49:56.260Z,16.10
2018-04-17T20:52:28.685Z,20.40
2018-04-17T20:54:57.191Z,16.70
2018-04-17T20:57:24.905Z,17.97
2018-04-17T20:59:52.562Z,21.60
2018-04-17T21:02:21.418Z,18.93
2018-04-17T21:04:49.515Z,18.60
2018-04-17T21:07:19.252Z,17.57
2018-04-17T21:09:47.721Z,19.30
2018-04-17T21:12:30.481Z,16.73
2018-04-17T21:14:58.604Z,17.90
2018-04-17T21:17:38.812Z,19.40
2018-04-17T21:20:06.523Z,20.93
2018-04-17T21:22:40.103Z,20.93
2018-04-17T21:25:09.576Z,20.50
2018-04-17T21:27:44.392Z,16.07
2018-04-17T21:30:12.077Z,23.60
2018-04-17T21:32:45.594Z,21.80
2018-04-17T21:35:13.311Z,21.60
2018-04-17T21:37:41.101Z,19.57
2018-04-17T21:40:09.217Z,20.77
2018-04-17T21:42:40.689Z,21.57
2018-04-17T21:45:09.105Z,16.77
2018-04-17T21:50:31.747Z,19.60
2018-04-17T21:52:59.450Z,18.80
2018-04-17T21:55:29.022Z,19.00
2018-04-17T21:57:56.743Z,20.33
2018-04-17T22:00:32.012Z,18.57
2018-04-17T22:03:00.470Z,17.73
2018-04-17T22:05:29.168Z,24.53
2018-04-17T22:07:57.683Z,19.57
2018-04-17T22:10:29.811Z,18.37
2018-04-17T22:12:58.433Z,19.57
2018-04-17T22:15:27.868Z,17.97
2018-04-17T22:17:55.568Z,19.77
2018-04-17T22:20:24.119Z,16.70
2018-04-17T22:22:52.256Z,16.17
2018-04-17T22:25:22.761Z,20.23
2018-04-17T22:27:50.443Z,16.37
2018-04-17T22:30:27.261Z,20.57
2018-04-17T22:32:55.017Z,19.50
2018-04-17T22:35:39.719Z,15.90
2018-04-17T22:38:07.453Z,16.93
2018-04-17T22:40:41.373Z,17.00
2018-04-17T22:43:09.104Z,18.00
2018-04-17T22:45:56.450Z,18.70
2018-04-17T22:48:24.185Z,14.13
2018-04-17T22:50:58.435Z,15.47
2018-04-17T22:53:26.216Z,12.47
2018-04-17T22:55:58.024Z,15.00
2018-04-17T22:58:25.802Z,20.50
2018-04-17T23:01:03.847Z,18.20
2018-04-17T23:03:32.023Z,16.67
2018-04-17T23:06:24.052Z,15.37
2018-04-17T23:08:52.477Z,16.20
2018-04-17T23:11:24.680Z,19.13
2018-04-17T23:13:52.402Z,19.63
2018-04-17T23:16:21.168Z,19.80
2018-04-17T23:18:49.636Z,15.00
2018-04-17T23:21:36.145Z,14.60
2018-04-17T23:24:05.007Z,17.27
2018-04-17T23:26:39.577Z,18.67
2018-04-17T23:29:07.270Z,15.60
2018-04-17T23:31:38.776Z,19.73
2018-04-17T23:34:06.861Z,16.97
2018-04-17T23:36:35.602Z,22.40
2018-04-17T23:39:03.384Z,20.53
2018-04-17T23:41:32.036Z,18.70
2018-04-17T23:43:59.783Z,20.23
2018-04-17T23:46:32.992Z,18.27
2018-04-17T23:49:01.119Z,15.83
2018-04-17T23:51:44.560Z,16.87
2018-04-17T23:54:13.040Z,23.03
2018-04-17T23:56:49.038Z,19.57
2018-04-17T23:59:16.734Z,15.67
